createdAt,value
2022-09-28T00:00:31.776Z,3.80
2022-09-28T00:02:58.242Z,3.58
2022-09-28T00:05:28.737Z,3.88
2022-09-28T00:07:56.679Z,3.78
2022-09-28T00:10:23.136Z,3.70
2022-09-28T00:12:50.897Z,3.28
2022-09-28T00:15:18.048Z,3.65
2022-09-28T00:17:44.921Z,3.10
2022-09-28T00:20:12.030Z,3.33
2022-09-28T00:22:39.018Z,3.63
2022-09-28T00:25:06.940Z,3.40
2022-09-28T00:27:33.419Z,3.53
2022-09-28T00:30:00.110Z,3.30
2022-09-28T00:32:26.875Z,3.70
2022-09-28T00:34:53.429Z,2.95
2022-09-28T00:37:20.581Z,3.38
2022-09-28T00:39:48.628Z,3.20
2022-09-28T00:42:23.726Z,3.05
2022-09-28T00:44:57.186Z,3.03
2022-09-28T00:47:46.564Z,3.40
2022-09-28T00:50:29.029Z,3.40
2022-09-28T00:52:58.284Z,3.05
2022-09-28T00:55:42.566Z,3.30
2022-09-28T00:58:12.118Z,3.42
2022-09-28T01:00:41.066Z,3.10
2022-09-28T01:03:09.340Z,3.15
2022-09-28T01:05:36.991Z,3.13
2022-09-28T01:08:04.544Z,3.40
2022-09-28T01:10:31.536Z,2.95
2022-09-28T01:12:59.253Z,2.90
2022-09-28T01:15:29.163Z,3.22
2022-09-28T01:18:05.660Z,3.10
2022-09-28T01:20:55.116Z,3.17
2022-09-28T01:23:30.714Z,2.85
2022-09-28T01:26:25.074Z,3.03
2022-09-28T01:29:03.203Z,3.03
2022-09-28T01:31:33.716Z,2.65
2022-09-28T01:34:15.192Z,2.50
2022-09-28T01:36:50.792Z,2.83
2022-09-28T01:39:27.525Z,2.80
2022-09-28T01:41:56.663Z,2.60
2022-09-28T01:44:27.267Z,2.70
2022-09-28T01:46:56.290Z,2.70
2022-09-28T01:49:30.902Z,2.53
2022-09-28T01:54:38.158Z,2.58
2022-09-28T01:57:26.803Z,2.55
2022-09-28T02:00:01.229Z,2.65
2022-09-28T02:02:34.006Z,3.10
2022-09-28T02:05:04.387Z,2.97
2022-09-28T02:08:13.380Z,2.70
2022-09-28T02:10:49.396Z,2.80
2022-09-28T02:13:24.958Z,2.75
2022-09-28T02:15:58.543Z,2.85
2022-09-28T02:18:25.110Z,2.72
2022-09-28T02:21:13.219Z,3.00
2022-09-28T02:23:45.421Z,2.95
2022-09-28T02:26:16.667Z,2.97
2022-09-28T02:28:43.218Z,3.15
2022-09-28T02:31:09.854Z,2.70
2022-09-28T02:33:40.695Z,3.08
2022-09-28T02:36:07.343Z,3.05
2022-09-28T02:38:33.779Z,2.88
2022-09-28T02:41:39.786Z,3.22
2022-09-28T02:44:24.943Z,3.42
2022-09-28T02:47:05.853Z,3.42
2022-09-28T02:50:06.674Z,3.67
2022-09-28T02:52:42.249Z,3.15
2022-09-28T02:55:30.586Z,3.08
2022-09-28T02:58:21.913Z,3.40
2022-09-28T03:01:06.988Z,3.08
2022-09-28T03:03:45.349Z,3.92
2022-09-28T03:06:19.152Z,3.63
2022-09-28T03:08:58.176Z,3.20
2022-09-28T03:11:31.647Z,3.55
2022-09-28T03:13:58.373Z,3.53
2022-09-28T03:16:25.118Z,3.58
2022-09-28T03:18:51.701Z,3.85
2022-09-28T03:21:18.342Z,3.10
2022-09-28T03:23:44.972Z,3.60
2022-09-28T03:26:12.731Z,3.63
2022-09-28T03:28:39.491Z,3.40
2022-09-28T03:31:06.220Z,3.90
2022-09-28T03:33:32.789Z,3.70
2022-09-28T03:35:59.335Z,3.35
2022-09-28T03:38:25.781Z,3.42
2022-09-28T03:40:57.337Z,3.67
2022-09-28T03:43:24.911Z,3.08
2022-09-28T03:46:01.713Z,3.15
2022-09-28T03:48:32.743Z,3.30
2022-09-28T03:51:02.541Z,2.75
2022-09-28T03:53:32.385Z,2.90
2022-09-28T03:56:04.471Z,2.85
2022-09-28T03:58:31.089Z,2.63
2022-09-28T04:01:05.412Z,2.30
2022-09-28T04:03:32.172Z,2.65
2022-09-28T04:05:58.987Z,2.80
2022-09-28T04:08:25.653Z,2.58
2022-09-28T04:10:52.228Z,2.30
2022-09-28T04:13:18.781Z,2.30
2022-09-28T04:15:53.481Z,2.50
2022-09-28T04:20:48.051Z,2.75
2022-09-28T04:23:15.464Z,2.53
2022-09-28T04:25:42.515Z,2.50
2022-09-28T04:28:28.173Z,2.47
2022-09-28T04:30:54.554Z,2.58
2022-09-28T04:33:20.943Z,2.60
2022-09-28T04:35:47.345Z,2.50
2022-09-28T04:38:13.827Z,2.58
2022-09-28T04:40:40.338Z,2.72
2022-09-28T04:43:06.897Z,2.60
2022-09-28T04:45:33.389Z,2.78
2022-09-28T04:47:59.982Z,2.80
2022-09-28T04:50:26.514Z,2.80
2022-09-28T04:52:53.001Z,2.78
2022-09-28T04:55:20.555Z,2.63
2022-09-28T04:57:47.107Z,2.50
2022-09-28T05:00:14.182Z,2.53
2022-09-28T05:02:42.886Z,2.65
2022-09-28T05:05:09.393Z,2.33
2022-09-28T05:07:35.909Z,2.58
2022-09-28T05:10:02.436Z,2.55
2022-09-28T05:12:28.849Z,2.60
2022-09-28T05:14:56.506Z,2.42
2022-09-28T05:17:23.199Z,3.92
2022-09-28T05:19:49.624Z,3.75
2022-09-28T05:22:16.434Z,3.13
2022-09-28T05:24:42.932Z,2.67
2022-09-28T05:27:09.391Z,2.80
2022-09-28T05:29:35.770Z,2.60
2022-09-28T05:32:02.328Z,2.40
2022-09-28T05:34:29.240Z,2.05
2022-09-28T05:36:55.755Z,1.90
2022-09-28T05:39:22.230Z,1.95
2022-09-28T05:41:49.285Z,2.00
2022-09-28T05:44:15.850Z,2.00
2022-09-28T05:46:42.367Z,1.83
2022-09-28T05:49:08.756Z,1.90
2022-09-28T05:51:35.201Z,1.88
2022-09-28T05:54:05.666Z,1.77
2022-09-28T05:56:32.893Z,1.92
2022-09-28T05:58:59.444Z,1.58
2022-09-28T06:01:25.905Z,1.50
2022-09-28T06:03:52.343Z,1.70
2022-09-28T06:06:18.739Z,1.75
2022-09-28T06:08:46.383Z,1.90
2022-09-28T06:11:12.946Z,1.80
2022-09-28T06:13:42.612Z,1.70
2022-09-28T06:16:15.159Z,1.50
2022-09-28T06:18:42.112Z,1.73
2022-09-28T06:21:10.921Z,1.88
2022-09-28T06:23:39.977Z,1.50
2022-09-28T06:26:06.997Z,1.42
2022-09-28T06:28:33.395Z,1.40
2022-09-28T06:31:01.662Z,1.30
2022-09-28T06:33:28.208Z,1.60
2022-09-28T06:35:54.642Z,1.33
2022-09-28T06:38:22.025Z,1.40
2022-09-28T06:40:48.500Z,1.42
2022-09-28T06:43:15.410Z,1.35
2022-09-28T06:45:43.047Z,1.30
2022-09-28T06:48:11.067Z,1.50
2022-09-28T06:50:40.791Z,1.33
2022-09-28T06:53:12.142Z,1.38
2022-09-28T06:55:42.941Z,1.90
2022-09-28T06:58:15.832Z,1.42
2022-09-28T07:00:42.384Z,2.60
2022-09-28T07:03:14.236Z,2.10
2022-09-28T07:05:43.317Z,1.83
2022-09-28T07:08:10.011Z,1.75
2022-09-28T07:10:41.918Z,2.00
2022-09-28T07:13:15.307Z,1.73
2022-09-28T07:15:48.895Z,1.45
2022-09-28T07:18:15.410Z,1.50
2022-09-28T07:20:52.703Z,1.50
2022-09-28T07:23:20.413Z,1.30
2022-09-28T07:25:49.610Z,1.38
2022-09-28T07:28:17.318Z,1.20
2022-09-28T07:30:44.775Z,1.30
2022-09-28T07:33:14.628Z,1.48
2022-09-28T07:35:42.424Z,1.20
2022-09-28T07:38:10.672Z,1.17
2022-09-28T07:40:55.874Z,1.45
2022-09-28T07:43:22.785Z,1.20
2022-09-28T07:45:54.194Z,1.27
2022-09-28T07:48:22.065Z,1.50
2022-09-28T07:50:51.343Z,1.30
2022-09-28T07:53:22.902Z,1.20
2022-09-28T07:55:53.530Z,1.10
2022-09-28T07:58:20.620Z,1.30
2022-09-28T08:00:49.082Z,1.35
2022-09-28T08:03:22.400Z,1.33
2022-09-28T08:05:49.497Z,1.27
2022-09-28T08:08:16.291Z,1.10
2022-09-28T08:10:46.861Z,1.08
2022-09-28T08:13:15.298Z,1.10
2022-09-28T08:15:42.575Z,1.10
2022-09-28T08:18:09.368Z,1.30
2022-09-28T08:21:01.691Z,1.20
2022-09-28T08:23:28.407Z,1.10
2022-09-28T08:25:54.945Z,1.10
2022-09-28T08:28:23.006Z,1.02
2022-09-28T08:30:50.255Z,0.90
2022-09-28T08:33:22.645Z,1.10
2022-09-28T08:35:57.693Z,1.05
2022-09-28T08:38:29.458Z,1.05
2022-09-28T08:41:14.692Z,0.93
2022-09-28T08:44:02.437Z,0.90
2022-09-28T08:46:37.088Z,0.82
2022-09-28T08:49:24.553Z,0.85
2022-09-28T08:52:03.377Z,0.75
2022-09-28T08:54:48.829Z,0.80
2022-09-28T08:57:27.622Z,0.88
2022-09-28T08:59:59.709Z,0.88
2022-09-28T09:02:36.127Z,0.68
2022-09-28T09:05:06.217Z,0.80
2022-09-28T09:08:02.353Z,0.50
2022-09-28T09:10:43.260Z,0.50
2022-09-28T09:13:31.497Z,0.50
2022-09-28T09:16:08.810Z,0.60
2022-09-28T09:18:48.302Z,0.60
2022-09-28T09:21:26.890Z,0.50
2022-09-28T09:23:56.108Z,0.40
2022-09-28T09:26:43.439Z,0.47
2022-09-28T09:29:16.972Z,0.57
2022-09-28T09:31:59.742Z,0.50
2022-09-28T09:35:05.644Z,0.50
2022-09-28T09:38:09.354Z,0.50
2022-09-28T09:40:46.585Z,0.50
2022-09-28T09:43:38.487Z,0.52
2022-09-28T09:46:15.071Z,0.40
2022-09-28T09:49:17.655Z,0.50
2022-09-28T09:51:48.347Z,0.50
2022-09-28T09:54:29.092Z,0.40
2022-09-28T09:57:10.554Z,0.40
2022-09-28T09:59:41.540Z,0.25
2022-09-28T10:02:26.881Z,0.30
2022-09-28T10:05:01.837Z,0.50
2022-09-28T10:07:45.719Z,0.30
2022-09-28T10:10:20.522Z,0.30
2022-09-28T10:12:51.059Z,0.30
2022-09-28T10:15:31.469Z,0.20
2022-09-28T10:18:03.208Z,0.30
2022-09-28T10:20:34.610Z,0.30
2022-09-28T10:23:04.895Z,0.32
2022-09-28T10:25:37.332Z,0.40
2022-09-28T10:28:06.305Z,0.30
2022-09-28T10:30:41.911Z,0.30
2022-09-28T10:33:31.614Z,0.30
2022-09-28T10:36:01.115Z,0.30
2022-09-28T10:38:29.665Z,0.30
2022-09-28T10:41:04.106Z,0.20
2022-09-28T10:43:34.664Z,0.20
2022-09-28T10:46:10.426Z,0.30
2022-09-28T10:49:01.045Z,0.10
2022-09-28T10:51:44.290Z,0.40
2022-09-28T10:54:28.753Z,0.30
2022-09-28T10:56:56.927Z,0.20
2022-09-28T11:01:59.399Z,0.55
2022-09-28T11:04:34.226Z,0.20
2022-09-28T11:07:01.776Z,0.38
2022-09-28T11:09:31.383Z,0.30
2022-09-28T11:12:03.418Z,0.40
2022-09-28T11:14:41.085Z,0.55
2022-09-28T11:17:29.970Z,0.40
2022-09-28T11:20:02.288Z,0.40
2022-09-28T11:22:36.348Z,0.50
2022-09-28T11:25:32.111Z,0.50
2022-09-28T11:28:01.795Z,0.50
2022-09-28T11:30:52.898Z,0.55
2022-09-28T11:33:23.190Z,0.60
2022-09-28T11:36:00.644Z,0.60
2022-09-28T11:38:55.207Z,0.60
2022-09-28T11:41:38.371Z,0.50
2022-09-28T11:44:23.198Z,0.60
2022-09-28T11:47:04.777Z,0.68
2022-09-28T11:49:49.512Z,0.65
2022-09-28T11:52:27.954Z,0.60
2022-09-28T11:54:59.924Z,0.68
2022-09-28T11:57:34.220Z,0.50
2022-09-28T12:00:06.461Z,0.65
2022-09-28T12:02:39.577Z,0.60
2022-09-28T12:05:17.087Z,0.50
2022-09-28T12:07:52.172Z,0.60
2022-09-28T12:10:29.855Z,0.63
2022-09-28T12:13:26.618Z,0.60
2022-09-28T12:16:27.213Z,0.73
2022-09-28T12:18:54.915Z,0.57
2022-09-28T12:21:24.464Z,0.75
2022-09-28T12:23:56.092Z,0.80
2022-09-28T12:26:38.005Z,0.70
2022-09-28T12:29:20.877Z,0.50
2022-09-28T12:31:57.909Z,0.50
2022-09-28T12:34:24.398Z,0.50
2022-09-28T12:37:08.842Z,0.40
2022-09-28T12:40:02.691Z,0.50
2022-09-28T12:43:01.306Z,0.50
2022-09-28T12:46:07.042Z,0.50
2022-09-28T12:49:03.016Z,0.65
2022-09-28T12:51:42.940Z,0.73
2022-09-28T12:54:46.773Z,0.63
2022-09-28T12:57:31.500Z,0.90
2022-09-28T13:00:02.342Z,0.90
2022-09-28T13:03:07.033Z,0.80
2022-09-28T13:06:01.547Z,0.70
2022-09-28T13:08:53.780Z,0.70
2022-09-28T13:12:03.376Z,0.70
2022-09-28T13:14:53.125Z,0.70
2022-09-28T13:17:48.770Z,0.77
2022-09-28T13:20:32.859Z,0.60
2022-09-28T13:23:33.714Z,0.63
2022-09-28T13:26:22.364Z,0.80
2022-09-28T13:28:51.309Z,1.10
2022-09-28T13:31:31.721Z,0.77
2022-09-28T13:34:01.883Z,0.70
2022-09-28T13:36:28.320Z,0.70
2022-09-28T13:38:57.051Z,0.80
2022-09-28T13:41:38.588Z,0.75
2022-09-28T13:44:11.603Z,0.65
2022-09-28T13:47:03.394Z,0.80
2022-09-28T13:49:45.530Z,0.80
2022-09-28T13:52:34.187Z,0.90
2022-09-28T13:55:26.261Z,3.80
2022-09-28T13:58:00.646Z,0.80
2022-09-28T14:00:50.479Z,1.00
2022-09-28T14:03:56.958Z,0.70
2022-09-28T14:06:27.759Z,0.52
2022-09-28T14:09:12.452Z,1.20
2022-09-28T14:11:44.013Z,9.65
2022-09-28T14:14:16.404Z,7.72
2022-09-28T14:16:43.718Z,1.52
2022-09-28T14:19:33.199Z,1.08
2022-09-28T14:22:26.205Z,0.93
2022-09-28T14:25:20.104Z,0.98
2022-09-28T14:28:40.318Z,0.98
2022-09-28T14:31:14.228Z,0.52
2022-09-28T14:33:42.881Z,0.65
2022-09-28T14:36:46.253Z,0.55
2022-09-28T14:39:50.378Z,2.03
2022-09-28T14:42:25.231Z,2.17
2022-09-28T14:45:05.238Z,1.45
2022-09-28T14:47:44.823Z,1.30
2022-09-28T14:50:25.283Z,0.70
2022-09-28T14:52:55.204Z,0.60
2022-09-28T14:55:31.863Z,0.80
2022-09-28T14:57:59.388Z,0.70
2022-09-28T15:00:30.291Z,0.77
2022-09-28T15:03:02.506Z,1.70
2022-09-28T15:05:43.923Z,1.00
2022-09-28T15:08:11.944Z,0.93
2022-09-28T15:10:45.467Z,2.85
2022-09-28T15:13:19.979Z,3.90
2022-09-28T15:15:59.523Z,1.85
2022-09-28T15:18:53.564Z,1.75
2022-09-28T15:21:21.450Z,0.70
2022-09-28T15:23:48.049Z,2.40
2022-09-28T15:26:28.437Z,1.50
2022-09-28T15:28:55.639Z,1.50
2022-09-28T15:31:26.187Z,1.00
2022-09-28T15:34:12.118Z,0.80
2022-09-28T15:36:41.167Z,0.70
2022-09-28T15:39:20.976Z,0.80
2022-09-28T15:41:50.718Z,1.50
2022-09-28T15:44:24.239Z,4.00
2022-09-28T15:47:03.208Z,1.20
2022-09-28T15:49:39.106Z,1.13
2022-09-28T15:52:06.033Z,1.20
2022-09-28T15:54:41.617Z,1.40
2022-09-28T15:57:29.397Z,1.92
2022-09-28T15:59:59.474Z,1.40
2022-09-28T16:02:27.282Z,1.13
2022-09-28T16:04:56.643Z,1.10
2022-09-28T16:07:25.020Z,1.10
2022-09-28T16:10:05.175Z,1.10
2022-09-28T16:12:37.745Z,9.10
2022-09-28T16:15:12.124Z,1.60
2022-09-28T16:17:38.701Z,3.70
2022-09-28T16:20:20.939Z,5.25
2022-09-28T16:22:47.902Z,4.30
2022-09-28T16:25:23.858Z,3.45
2022-09-28T16:27:52.710Z,0.80
2022-09-28T16:30:32.411Z,1.15
2022-09-28T16:33:01.943Z,2.38
2022-09-28T16:35:48.909Z,1.00
2022-09-28T16:38:17.312Z,1.92
2022-09-28T16:40:54.698Z,1.00
2022-09-28T16:43:27.687Z,0.93
2022-09-28T16:45:59.874Z,1.20
2022-09-28T16:48:28.884Z,0.82
2022-09-28T16:50:56.352Z,0.77
2022-09-28T16:53:42.564Z,0.70
2022-09-28T16:56:09.814Z,0.98
2022-09-28T16:58:36.565Z,0.93
2022-09-28T17:01:03.285Z,0.60
2022-09-28T17:03:29.975Z,1.10
2022-09-28T17:05:56.707Z,0.90
2022-09-28T17:08:24.811Z,1.08
2022-09-28T17:13:47.129Z,1.00
2022-09-28T17:16:28.202Z,1.55
2022-09-28T17:19:19.173Z,1.83
2022-09-28T17:21:46.607Z,2.42
2022-09-28T17:24:15.808Z,1.70
2022-09-28T17:26:44.316Z,1.70
2022-09-28T17:29:14.619Z,2.10
2022-09-28T17:31:45.997Z,1.77
2022-09-28T17:34:15.962Z,1.75
2022-09-28T17:36:43.937Z,1.70
2022-09-28T17:39:15.913Z,1.52
2022-09-28T17:41:42.418Z,1.90
2022-09-28T17:44:09.182Z,1.65
2022-09-28T17:46:39.373Z,1.85
2022-09-28T17:49:07.645Z,2.70
2022-09-28T17:51:37.601Z,1.80
2022-09-28T17:54:06.513Z,3.20
2022-09-28T17:56:33.391Z,2.90
2022-09-28T17:59:05.804Z,3.35
2022-09-28T18:01:34.476Z,3.80
2022-09-28T18:04:03.407Z,4.22
2022-09-28T18:06:32.399Z,3.30
2022-09-28T18:08:59.253Z,3.00
2022-09-28T18:11:26.232Z,3.05
2022-09-28T18:13:52.759Z,3.20
2022-09-28T18:16:19.504Z,3.13
2022-09-28T18:18:47.422Z,3.03
2022-09-28T18:21:14.098Z,3.60
2022-09-28T18:23:40.999Z,4.10
2022-09-28T18:26:12.935Z,3.55
2022-09-28T18:28:40.063Z,3.40
2022-09-28T18:31:08.650Z,3.45
2022-09-28T18:33:35.479Z,3.80
2022-09-28T18:36:02.566Z,3.92
2022-09-28T18:38:29.130Z,4.97
2022-09-28T18:40:56.430Z,4.90
2022-09-28T18:43:23.497Z,4.80
2022-09-28T18:45:49.944Z,4.93
2022-09-28T18:48:16.820Z,5.72
2022-09-28T18:50:43.357Z,5.47
2022-09-28T18:53:12.480Z,5.90
2022-09-28T18:55:43.456Z,4.63
2022-09-28T18:58:11.356Z,5.25
2022-09-28T19:00:40.301Z,4.85
2022-09-28T19:03:07.718Z,4.63
2022-09-28T19:05:35.070Z,4.47
2022-09-28T19:08:01.809Z,4.00
2022-09-28T19:10:28.296Z,3.47
2022-09-28T19:12:54.758Z,3.47
2022-09-28T19:15:22.593Z,3.40
2022-09-28T19:17:49.955Z,3.28
2022-09-28T19:20:17.429Z,3.47
2022-09-28T19:22:44.397Z,4.32
2022-09-28T19:25:11.101Z,4.15
2022-09-28T19:27:37.590Z,4.55
2022-09-28T19:30:04.410Z,4.30
2022-09-28T19:32:30.924Z,4.25
2022-09-28T19:34:57.645Z,4.97
2022-09-28T19:37:24.120Z,4.65
2022-09-28T19:39:50.552Z,4.57
2022-09-28T19:42:17.151Z,4.10
2022-09-28T19:44:43.885Z,4.15
2022-09-28T19:47:12.129Z,3.90
2022-09-28T19:49:40.353Z,3.28
2022-09-28T19:52:16.073Z,3.47
2022-09-28T19:54:54.298Z,3.20
2022-09-28T19:57:20.909Z,4.82
2022-09-28T19:59:52.036Z,7.47
2022-09-28T20:02:19.195Z,7.13
2022-09-28T20:04:46.305Z,6.28
2022-09-28T20:07:12.827Z,3.88
2022-09-28T20:09:39.896Z,3.22
2022-09-28T20:12:06.462Z,3.33
2022-09-28T20:14:36.518Z,2.90
2022-09-28T20:17:05.998Z,2.90
2022-09-28T20:19:33.524Z,2.78
2022-09-28T20:22:02.654Z,2.78
2022-09-28T20:24:29.544Z,2.92
2022-09-28T20:26:56.003Z,3.15
2022-09-28T20:29:24.308Z,2.67
2022-09-28T20:34:18.186Z,2.90
2022-09-28T20:36:44.623Z,3.28
2022-09-28T20:39:11.366Z,3.17
2022-09-28T20:41:37.877Z,3.58
2022-09-28T20:44:06.556Z,3.15
2022-09-28T20:46:35.017Z,3.40
2022-09-28T20:51:28.113Z,3.47
2022-09-28T20:53:57.184Z,3.45
2022-09-28T20:56:24.848Z,3.38
2022-09-28T20:58:51.966Z,3.97
2022-09-28T21:01:27.294Z,4.40
2022-09-28T21:03:56.132Z,3.85
2022-09-28T21:06:25.503Z,4.22
2022-09-28T21:08:52.650Z,4.32
2022-09-28T21:11:22.227Z,4.03
2022-09-28T21:13:53.228Z,4.10
2022-09-28T21:16:19.738Z,4.00
2022-09-28T21:18:47.181Z,4.30
2022-09-28T21:21:15.819Z,4.40
2022-09-28T21:23:45.138Z,4.53
2022-09-28T21:26:15.925Z,4.20
2022-09-28T21:28:44.750Z,4.28
2022-09-28T21:31:12.819Z,4.78
2022-09-28T21:33:39.369Z,4.35
2022-09-28T21:36:07.294Z,4.43
2022-09-28T21:38:34.695Z,4.63
2022-09-28T21:41:01.291Z,4.70
2022-09-28T21:43:29.405Z,4.50
2022-09-28T21:45:56.447Z,4.65
2022-09-28T21:48:25.333Z,4.90
2022-09-28T21:50:55.636Z,4.60
2022-09-28T21:53:22.889Z,4.22
2022-09-28T21:55:53.038Z,4.28
2022-09-28T21:58:23.852Z,4.63
2022-09-28T22:00:55.653Z,4.53
2022-09-28T22:03:24.818Z,4.43
2022-09-28T22:05:52.212Z,4.82
2022-09-28T22:08:19.968Z,4.85
2022-09-28T22:10:57.551Z,4.93
2022-09-28T22:13:23.966Z,4.53
2022-09-28T22:15:54.281Z,4.78
2022-09-28T22:18:20.967Z,4.65
2022-09-28T22:20:47.430Z,4.95
2022-09-28T22:23:13.899Z,4.60
2022-09-28T22:25:40.453Z,4.35
2022-09-28T22:28:06.899Z,4.43
2022-09-28T22:30:34.569Z,4.78
2022-09-28T22:33:01.044Z,5.22
2022-09-28T22:35:27.406Z,4.85
2022-09-28T22:37:53.943Z,4.47
2022-09-28T22:40:20.410Z,4.57
2022-09-28T22:42:46.792Z,4.13
2022-09-28T22:45:13.333Z,4.20
2022-09-28T22:47:39.758Z,4.70
2022-09-28T22:50:08.102Z,4.18
2022-09-28T22:52:34.556Z,3.47
2022-09-28T22:55:00.971Z,3.03
2022-09-28T22:57:27.447Z,3.33
2022-09-28T22:59:53.845Z,3.72
2022-09-28T23:02:20.270Z,3.70
2022-09-28T23:04:46.691Z,4.13
2022-09-28T23:07:13.236Z,4.30
2022-09-28T23:09:39.663Z,4.38
2022-09-28T23:12:06.190Z,5.13
2022-09-28T23:14:32.664Z,5.10
2022-09-28T23:16:59.097Z,5.70
2022-09-28T23:19:25.517Z,5.90
2022-09-28T23:21:51.934Z,5.05
2022-09-28T23:24:18.904Z,6.13
2022-09-28T23:26:45.423Z,5.25
2022-09-28T23:29:11.950Z,5.18
2022-09-28T23:31:39.167Z,5.50
2022-09-28T23:34:06.611Z,4.43
2022-09-28T23:36:33.769Z,4.65
2022-09-28T23:39:00.586Z,4.15
2022-09-28T23:41:27.117Z,4.80
2022-09-28T23:43:53.556Z,5.38
2022-09-28T23:46:21.179Z,5.40
2022-09-28T23:48:48.767Z,5.07
2022-09-28T23:51:15.329Z,4.72
2022-09-28T23:53:43.306Z,4.75
2022-09-28T23:56:09.793Z,4.80
2022-09-28T23:58:36.176Z,4.82
